Time;durP1;ratioP1;P1;durP2;ratioP2;P2;SDS_P1;SDS_P2;PMS_P1;PMS_P2;Temp;Humidity;BMP_temperature;BMP_pressure;BME280_temperature;BME280_humidity;BME280_pressure;Samples;Min_cycle;Max_cycle;Signal;HPM_P1;HPM_P2
2022/06/06 00:00:40;;;;;;;3.83;2.70;;;;;;;;;;4950884;28;20660;-79
2022/06/06 00:03:46;;;;;;;6.80;2.70;;;;;;;;;;4962316;28;20203;-79
2022/06/06 00:06:55;;;;;;;3.77;2.50;;;;;;;;;;4970241;28;20203;-79
2022/06/06 00:09:59;;;;;;;3.83;2.70;;;;;;;;;;4979599;28;20195;-79
2022/06/06 00:13:03;;;;;;;5.23;3.00;;;;;;;;;;4969606;28;20199;-79
2022/06/06 00:16:08;;;;;;;2.97;2.53;;;;;;;;;;4969510;28;20195;-79
2022/06/06 00:19:13;;;;;;;6.07;2.50;;;;;;;;;;4969604;28;20183;-79
2022/06/06 00:22:17;;;;;;;9.10;2.80;;;;;;;;;;4962202;29;20567;-79
2022/06/06 00:25:21;;;;;;;6.47;2.97;;;;;;;;;;4961783;29;20516;-79
2022/06/06 00:28:25;;;;;;;8.20;2.67;;;;;;;;;;4990228;23;20225;-76
2022/06/06 00:34:52;;;;;;;4.37;2.67;;;;;;;;;;5004026;28;20530;-77
2022/06/06 00:37:56;;;;;;;4.27;2.43;;;;;;;;;;4994865;28;20205;-76
2022/06/06 00:41:00;;;;;;;3.67;2.67;;;;;;;;;;4995178;28;20558;-77
2022/06/06 00:44:14;;;;;;;3.97;2.97;;;;;;;;;;4993937;28;20550;-76
2022/06/06 00:47:27;;;;;;;3.50;2.37;;;;;;;;;;4993205;28;20194;-76
2022/06/06 00:50:38;;;;;;;5.27;2.70;;;;;;;;;;4994434;28;20210;-76
2022/06/06 00:53:48;;;;;;;5.30;2.53;;;;;;;;;;4992613;28;20198;-76
2022/06/06 00:56:58;;;;;;;3.97;2.70;;;;;;;;;;4989681;28;20195;-76
2022/06/06 01:00:07;;;;;;;6.50;3.13;;;;;;;;;;5005009;28;20546;-76
2022/06/06 01:03:14;;;;;;;6.83;2.93;;;;;;;;;;4994424;28;20186;-76
2022/06/06 01:06:19;;;;;;;7.57;3.40;;;;;;;;;;4993231;28;20198;-76
2022/06/06 01:09:25;;;;;;;4.20;3.17;;;;;;;;;;4993536;28;20695;-76
2022/06/06 01:12:31;;;;;;;6.00;3.67;;;;;;;;;;4994226;28;20218;-76
2022/06/06 01:16:07;;;;;;;8.63;3.50;;;;;;;;;;4988615;28;20190;-76
2022/06/06 01:19:33;;;;;;;5.20;3.30;;;;;;;;;;4974643;28;20195;-76
2022/06/06 01:22:59;;;;;;;10.57;4.07;;;;;;;;;;4952186;28;20236;-76
2022/06/06 01:26:25;;;;;;;6.90;3.70;;;;;;;;;;4974295;28;20686;-76
2022/06/06 01:29:34;;;;;;;7.97;3.87;;;;;;;;;;4985133;28;20546;-77
2022/06/06 01:32:43;;;;;;;6.13;3.77;;;;;;;;;;4980858;28;20213;-76
2022/06/06 01:35:50;;;;;;;5.23;3.83;;;;;;;;;;5013116;28;20197;-76
2022/06/06 01:38:57;;;;;;;7.17;3.90;;;;;;;;;;5013605;28;20205;-76
2022/06/06 01:42:12;;;;;;;6.67;4.23;;;;;;;;;;5012939;28;20561;-76
2022/06/06 01:45:36;;;;;;;12.43;4.60;;;;;;;;;;5013566;28;20193;-76
2022/06/06 01:48:42;;;;;;;8.03;3.93;;;;;;;;;;4999398;28;20190;-76
2022/06/06 01:52:03;;;;;;;8.90;4.43;;;;;;;;;;4981745;28;20226;-76
2022/06/06 01:55:08;;;;;;;8.17;5.13;;;;;;;;;;4962326;28;20191;-76
2022/06/06 01:58:18;;;;;;;6.33;4.53;;;;;;;;;;4990455;28;20198;-76
2022/06/06 02:01:22;;;;;;;7.73;4.73;;;;;;;;;;4981731;28;20221;-76
2022/06/06 02:04:26;;;;;;;10.03;4.70;;;;;;;;;;4970552;28;20186;-76
2022/06/06 02:07:30;;;;;;;5.70;4.60;;;;;;;;;;5004502;28;20190;-76
2022/06/06 02:10:36;;;;;;;6.67;4.67;;;;;;;;;;4981070;28;20214;-76
2022/06/06 02:13:40;;;;;;;7.63;4.33;;;;;;;;;;5003503;28;20193;-76
2022/06/06 02:16:44;;;;;;;5.40;4.63;;;;;;;;;;4974210;28;20182;-76
2022/06/06 02:19:48;;;;;;;7.13;4.67;;;;;;;;;;4968459;28;20538;-76
2022/06/06 02:22:53;;;;;;;9.27;4.87;;;;;;;;;;4992870;28;20664;-76
2022/06/06 02:25:57;;;;;;;5.70;4.50;;;;;;;;;;4992996;28;20205;-76
2022/06/06 02:29:02;;;;;;;9.50;4.87;;;;;;;;;;4993688;28;20205;-76
2022/06/06 02:32:08;;;;;;;9.57;4.80;;;;;;;;;;4996167;28;20229;-76
2022/06/06 02:35:17;;;;;;;7.00;5.20;;;;;;;;;;4997221;28;20190;-76
2022/06/06 02:38:21;;;;;;;6.43;4.83;;;;;;;;;;5008648;28;20179;-76
2022/06/06 02:41:26;;;;;;;7.60;4.87;;;;;;;;;;4997036;28;20214;-76
2022/06/06 02:44:30;;;;;;;7.27;5.30;;;;;;;;;;4996008;28;20190;-76
2022/06/06 02:47:36;;;;;;;6.47;5.17;;;;;;;;;;4973719;28;20190;-76
2022/06/06 02:50:42;;;;;;;8.40;4.93;;;;;;;;;;4985155;28;20218;-76
2022/06/06 02:53:46;;;;;;;6.37;5.20;;;;;;;;;;4995618;28;20190;-76
2022/06/06 02:56:51;;;;;;;6.97;4.77;;;;;;;;;;4984805;28;20190;-76
2022/06/06 02:59:57;;;;;;;8.03;4.90;;;;;;;;;;4984830;28;20653;-76
2022/06/06 03:03:01;;;;;;;11.30;5.03;;;;;;;;;;4995835;28;20215;-76
2022/06/06 03:06:05;;;;;;;8.73;4.77;;;;;;;;;;4971032;28;20210;-76
2022/06/06 03:09:38;;;;;;;6.73;5.03;;;;;;;;;;4996353;28;20538;-76
2022/06/06 03:13:06;;;;;;;9.47;4.90;;;;;;;;;;4994373;28;20218;-76
2022/06/06 03:24:07;;;;;;;4.60;4.20;;;;;;;;;;5002025;28;20206;-76
2022/06/06 03:27:36;;;;;;;7.10;4.23;;;;;;;;;;4985041;28;20522;-76
2022/06/06 03:30:58;;;;;;;11.53;4.53;;;;;;;;;;4995662;28;20201;-76
2022/06/06 03:34:20;;;;;;;5.57;3.67;;;;;;;;;;4995874;28;20190;-76
2022/06/06 03:37:34;;;;;;;6.67;4.20;;;;;;;;;;4990107;28;20198;-76
2022/06/06 03:40:48;;;;;;;6.93;4.17;;;;;;;;;;4995844;28;20178;-76
2022/06/06 03:44:11;;;;;;;7.67;4.40;;;;;;;;;;4995907;28;20179;-76
2022/06/06 03:47:34;;;;;;;7.53;4.20;;;;;;;;;;4995291;28;20186;-76
2022/06/06 03:50:55;;;;;;;7.60;4.83;;;;;;;;;;4984219;28;20222;-76
2022/06/06 03:54:12;;;;;;;5.07;4.27;;;;;;;;;;4993890;28;20190;-76
2022/06/06 03:57:24;;;;;;;5.90;3.80;;;;;;;;;;4995896;28;20186;-76
2022/06/06 04:00:29;;;;;;;6.17;4.17;;;;;;;;;;4990889;28;20197;-76
2022/06/06 04:03:34;;;;;;;5.53;3.70;;;;;;;;;;4983985;28;20190;-76
2022/06/06 04:06:39;;;;;;;8.50;4.53;;;;;;;;;;4983483;28;20523;-76
2022/06/06 04:09:42;;;;;;;7.90;4.30;;;;;;;;;;4994921;28;20197;-76
2022/06/06 04:13:02;;;;;;;6.70;3.60;;;;;;;;;;4995289;28;20209;-76
2022/06/06 04:16:21;;;;;;;7.10;4.17;;;;;;;;;;4978365;28;20198;-76
2022/06/06 04:20:19;;;;;;;4.97;4.37;;;;;;;;;;4996304;28;20537;-76
2022/06/06 04:23:52;;;;;;;6.97;4.10;;;;;;;;;;4962763;28;20187;-76
2022/06/06 04:27:11;;;;;;;8.30;4.47;;;;;;;;;;4973930;28;20211;-76
2022/06/06 04:30:23;;;;;;;7.57;4.40;;;;;;;;;;4988089;28;20190;-76
2022/06/06 04:33:31;;;;;;;6.10;4.37;;;;;;;;;;4971979;28;20538;-76
2022/06/06 04:36:43;;;;;;;8.37;5.00;;;;;;;;;;4994137;28;20684;-76
2022/06/06 04:40:05;;;;;;;8.43;5.13;;;;;;;;;;4975056;28;20195;-76
2022/06/06 04:43:18;;;;;;;6.63;4.13;;;;;;;;;;4975358;28;20187;-76
2022/06/06 04:46:49;;;;;;;7.20;4.47;;;;;;;;;;4986093;28;20198;-76
2022/06/06 04:49:56;;;;;;;7.03;4.77;;;;;;;;;;4999825;28;20549;-76
2022/06/06 04:53:05;;;;;;;6.13;4.27;;;;;;;;;;4995616;28;20510;-76
2022/06/06 04:56:13;;;;;;;6.93;4.40;;;;;;;;;;4985683;28;20194;-76
2022/06/06 04:59:19;;;;;;;4.00;3.60;;;;;;;;;;4971666;28;20186;-76
2022/06/06 05:02:25;;;;;;;5.30;4.13;;;;;;;;;;4994508;28;20569;-76
2022/06/06 05:05:47;;;;;;;4.60;3.80;;;;;;;;;;4993640;28;20182;-76
2022/06/06 05:09:23;;;;;;;8.17;3.97;;;;;;;;;;4963783;28;20190;-76
2022/06/06 05:12:58;;;;;;;3.83;3.30;;;;;;;;;;4974363;28;20226;-76
2022/06/06 05:16:26;;;;;;;4.87;3.80;;;;;;;;;;4974647;28;20187;-77
2022/06/06 05:20:05;;;;;;;5.93;3.83;;;;;;;;;;4974378;28;20187;-76
2022/06/06 05:23:48;;;;;;;4.23;3.83;;;;;;;;;;4965793;28;20179;-78
2022/06/06 05:27:02;;;;;;;5.67;4.03;;;;;;;;;;4982672;28;20179;-77
2022/06/06 05:30:25;;;;;;;5.87;4.17;;;;;;;;;;4983001;28;20205;-77
2022/06/06 05:33:46;;;;;;;4.67;4.10;;;;;;;;;;5005451;28;20245;-77
2022/06/06 05:36:59;;;;;;;5.67;3.70;;;;;;;;;;5004968;28;20178;-78
2022/06/06 05:40:18;;;;;;;5.93;4.07;;;;;;;;;;5018450;28;20177;-78
2022/06/06 05:43:35;;;;;;;5.80;4.17;;;;;;;;;;4984590;28;20187;-77
2022/06/06 05:47:06;;;;;;;4.67;3.43;;;;;;;;;;4966685;28;20194;-78
2022/06/06 05:50:19;;;;;;;5.63;3.90;;;;;;;;;;4980424;28;20190;-78
2022/06/06 05:53:49;;;;;;;5.87;3.73;;;;;;;;;;4996391;28;20175;-78
2022/06/06 05:57:05;;;;;;;3.67;3.13;;;;;;;;;;4972798;28;20186;-78
2022/06/06 06:00:16;;;;;;;4.03;3.20;;;;;;;;;;4965868;28;20187;-78
2022/06/06 06:03:31;;;;;;;6.43;3.10;;;;;;;;;;4992283;28;20190;-78
2022/06/06 06:06:35;;;;;;;4.87;3.53;;;;;;;;;;4963179;28;20195;-78
2022/06/06 06:09:42;;;;;;;7.03;3.40;;;;;;;;;;4963093;28;20190;-77
2022/06/06 06:13:06;;;;;;;6.00;3.53;;;;;;;;;;4994994;28;20233;-77
2022/06/06 06:16:11;;;;;;;5.70;3.40;;;;;;;;;;4994855;28;20194;-77
2022/06/06 06:19:20;;;;;;;4.90;3.17;;;;;;;;;;4982766;28;20178;-77
2022/06/06 06:22:27;;;;;;;5.13;3.00;;;;;;;;;;4993720;28;20214;-77
2022/06/06 06:25:37;;;;;;;7.47;3.87;;;;;;;;;;4974242;28;20179;-77
2022/06/06 06:28:41;;;;;;;5.43;3.97;;;;;;;;;;4999695;23;20224;-79
2022/06/06 06:32:33;;;;;;;5.40;3.20;;;;;;;;;;5016639;28;20221;-81
2022/06/06 06:36:12;;;;;;;6.73;3.00;;;;;;;;;;4989547;28;20205;-79
2022/06/06 06:39:36;;;;;;;5.67;3.40;;;;;;;;;;4998364;28;20202;-79
2022/06/06 06:42:52;;;;;;;6.23;3.20;;;;;;;;;;4985515;28;20221;-81
2022/06/06 06:46:00;;;;;;;4.30;3.57;;;;;;;;;;4986614;28;20202;-80
2022/06/06 06:49:27;;;;;;;5.03;3.67;;;;;;;;;;5007359;28;20198;-80
2022/06/06 06:52:38;;;;;;;5.73;3.17;;;;;;;;;;4974482;28;20230;-77
2022/06/06 06:56:04;;;;;;;4.30;3.50;;;;;;;;;;4996008;28;20198;-79
2022/06/06 06:59:12;;;;;;;7.30;3.63;;;;;;;;;;4983051;28;20187;-78
2022/06/06 07:09:56;;;;;;;4.17;2.90;;;;;;;;;;4993813;28;20183;-79
2022/06/06 07:13:18;;;;;;;3.90;3.30;;;;;;;;;;4994583;28;20214;-79
2022/06/06 07:16:26;;;;;;;4.40;3.33;;;;;;;;;;4998718;28;20178;-77
2022/06/06 07:20:04;;;;;;;6.43;3.13;;;;;;;;;;4997340;28;20205;-79
2022/06/06 07:23:11;;;;;;;3.63;2.80;;;;;;;;;;4975628;28;20198;-79
2022/06/06 07:26:16;;;;;;;3.90;2.90;;;;;;;;;;4999259;28;20198;-80
2022/06/06 07:29:21;;;;;;;3.30;3.00;;;;;;;;;;4999453;28;20222;-80
2022/06/06 07:32:53;;;;;;;2.80;2.57;;;;;;;;;;5003181;28;20564;-80
2022/06/06 07:36:09;;;;;;;3.77;2.60;;;;;;;;;;5019052;28;20648;-79
2022/06/06 07:39:38;;;;;;;3.90;3.10;;;;;;;;;;5006618;28;20199;-79
2022/06/06 07:42:42;;;;;;;3.13;2.83;;;;;;;;;;4992649;28;20695;-79
2022/06/06 07:46:19;;;;;;;4.17;2.90;;;;;;;;;;5007332;28;20183;-80
2022/06/06 07:49:46;;;;;;;4.70;2.90;;;;;;;;;;5001775;28;20175;-80
2022/06/06 07:53:03;;;;;;;4.20;2.63;;;;;;;;;;5009687;28;20222;-80
2022/06/06 07:56:29;;;;;;;3.33;2.80;;;;;;;;;;4999787;28;20186;-81
2022/06/06 07:59:47;;;;;;;4.90;2.83;;;;;;;;;;4998513;28;20183;-80
2022/06/06 08:03:13;;;;;;;3.10;2.80;;;;;;;;;;5006662;28;20210;-81
2022/06/06 08:06:31;;;;;;;3.13;2.80;;;;;;;;;;5006942;28;20636;-80
2022/06/06 08:10:12;;;;;;;2.93;2.60;;;;;;;;;;5017859;28;20640;-80
2022/06/06 08:13:43;;;;;;;10.07;3.13;;;;;;;;;;4998741;28;20211;-80
2022/06/06 08:17:00;;;;;;;3.17;2.67;;;;;;;;;;4996351;28;20181;-82
2022/06/06 08:20:31;;;;;;;4.47;2.87;;;;;;;;;;5006833;28;20190;-81
2022/06/06 08:23:37;;;;;;;4.83;2.70;;;;;;;;;;4981934;28;20198;-82
2022/06/06 08:26:46;;;;;;;5.90;3.10;;;;;;;;;;4988645;28;20179;-81
2022/06/06 08:29:50;;;;;;;3.67;2.67;;;;;;;;;;4999837;28;20580;-81
2022/06/06 08:32:54;;;;;;;4.23;2.80;;;;;;;;;;5009770;28;20211;-81
2022/06/06 08:36:42;;;;;;;4.43;2.73;;;;;;;;;;5008311;28;20200;-80
2022/06/06 08:40:15;;;;;;;4.77;3.00;;;;;;;;;;5019039;28;20513;-81
2022/06/06 08:43:47;;;;;;;4.30;2.60;;;;;;;;;;5017125;28;20177;-81
2022/06/06 08:47:00;;;;;;;3.73;3.13;;;;;;;;;;5016660;28;20197;-81
2022/06/06 08:53:58;;;;;;;3.13;2.60;;;;;;;;;;5017364;28;20213;-80
2022/06/06 08:57:37;;;;;;;3.40;2.43;;;;;;;;;;5012408;28;20195;-80
2022/06/06 09:00:55;;;;;;;5.40;3.00;;;;;;;;;;4986256;28;20182;-80
2022/06/06 09:04:40;;;;;;;3.83;2.80;;;;;;;;;;4997376;28;20506;-81
2022/06/06 09:08:12;;;;;;;4.77;2.37;;;;;;;;;;4997870;28;20185;-82
2022/06/06 09:11:56;;;;;;;4.93;2.58;;;;;;;;;;5005091;28;20222;-81
2022/06/06 09:15:38;;;;;;;5.67;2.50;;;;;;;;;;5017423;28;20182;-81
2022/06/06 09:19:31;;;;;;;5.00;2.60;;;;;;;;;;5017087;28;20178;-81
2022/06/06 09:22:57;;;;;;;3.87;3.00;;;;;;;;;;5017114;28;20217;-81
2022/06/06 09:26:06;;;;;;;4.10;2.55;;;;;;;;;;4994597;28;20639;-82
2022/06/06 09:29:37;;;;;;;2.28;2.00;;;;;;;;;;4996740;28;20217;-81
2022/06/06 09:33:03;;;;;;;5.80;2.70;;;;;;;;;;4996889;28;20231;-80
2022/06/06 09:36:18;;;;;;;5.13;2.30;;;;;;;;;;4994758;28;20181;-82
2022/06/06 09:39:55;;;;;;;4.25;2.40;;;;;;;;;;4995523;28;20641;-82
2022/06/06 09:43:13;;;;;;;3.40;2.10;;;;;;;;;;5007079;28;20513;-80
2022/06/06 09:46:35;;;;;;;2.70;2.50;;;;;;;;;;4992363;28;20190;-80
2022/06/06 09:49:55;;;;;;;5.40;2.50;;;;;;;;;;4996547;28;20535;-80
2022/06/06 09:53:30;;;;;;;3.65;2.10;;;;;;;;;;4996595;28;20211;-80
2022/06/06 10:00:42;;;;;;;3.15;1.67;;;;;;;;;;5004197;28;20184;-81
2022/06/06 10:04:23;;;;;;;3.60;2.30;;;;;;;;;;5012840;28;20205;-81
2022/06/06 10:07:40;;;;;;;6.20;2.60;;;;;;;;;;5017005;28;20185;-81
2022/06/06 10:11:22;;;;;;;2.25;2.05;;;;;;;;;;5004883;28;20202;-80
2022/06/06 10:14:26;;;;;;;4.35;2.35;;;;;;;;;;5016766;28;20532;-80
2022/06/06 10:17:49;;;;;;;4.78;2.10;;;;;;;;;;4994384;28;20185;-81
2022/06/06 10:21:23;;;;;;;2.83;2.45;;;;;;;;;;5004839;28;20221;-80
2022/06/06 10:24:36;;;;;;;2.30;1.90;;;;;;;;;;5005252;28;20180;-80
2022/06/06 10:28:02;;;;;;;4.00;2.00;;;;;;;;;;5016030;28;20182;-80
2022/06/06 10:31:48;;;;;;;4.43;2.08;;;;;;;;;;5016250;28;20218;-80
2022/06/06 10:35:08;;;;;;;5.40;1.85;;;;;;;;;;5004742;28;20675;-81
2022/06/06 10:38:50;;;;;;;4.18;2.08;;;;;;;;;;4993516;28;20190;-80
2022/06/06 10:42:14;;;;;;;2.30;1.80;;;;;;;;;;5015558;28;20221;-82
2022/06/06 10:45:32;;;;;;;3.10;1.83;;;;;;;;;;5016834;28;20188;-81
2022/06/06 10:48:44;;;;;;;4.60;2.20;;;;;;;;;;5006663;28;20635;-81
2022/06/06 10:52:06;;;;;;;5.35;1.98;;;;;;;;;;5020355;28;20220;-81
2022/06/06 10:55:31;;;;;;;2.53;2.05;;;;;;;;;;5019618;28;20172;-81
2022/06/06 10:58:57;;;;;;;3.60;2.13;;;;;;;;;;5019867;28;20188;-80
2022/06/06 11:02:21;;;;;;;3.60;1.90;;;;;;;;;;5008331;28;20210;-80
2022/06/06 11:06:34;;;;;;;3.53;1.67;;;;;;;;;;5019202;28;20526;-80
2022/06/06 11:10:01;;;;;;;2.60;1.33;;;;;;;;;;4953997;28;20207;-80
2022/06/06 11:13:22;;;;;;;2.95;1.50;;;;;;;;;;4984770;28;20233;-80
2022/06/06 11:16:35;;;;;;;2.33;1.88;;;;;;;;;;5020215;28;20201;-79
2022/06/06 11:20:02;;;;;;;1.92;1.73;;;;;;;;;;5020001;28;20186;-79
2022/06/06 11:23:20;;;;;;;2.33;1.77;;;;;;;;;;5008079;28;20178;-80
2022/06/06 11:26:39;;;;;;;4.20;1.70;;;;;;;;;;5020254;28;20182;-78
2022/06/06 11:30:22;;;;;;;5.20;1.88;;;;;;;;;;5019851;28;20206;-80
2022/06/06 11:33:39;;;;;;;2.10;1.60;;;;;;;;;;5016994;28;20206;-80
2022/06/06 11:37:28;;;;;;;2.30;1.77;;;;;;;;;;5020068;28;20175;-78
2022/06/06 11:40:32;;;;;;;2.63;1.60;;;;;;;;;;5020035;28;20189;-79
2022/06/06 11:43:58;;;;;;;3.63;2.05;;;;;;;;;;5019277;28;20178;-79
2022/06/06 11:47:33;;;;;;;5.45;2.10;;;;;;;;;;5020366;28;20182;-79
2022/06/06 11:50:37;;;;;;;3.03;1.58;;;;;;;;;;5008015;28;20190;-79
2022/06/06 11:54:11;;;;;;;2.67;1.70;;;;;;;;;;5007986;28;20221;-79
2022/06/06 11:57:58;;;;;;;2.00;1.55;;;;;;;;;;5019745;28;20649;-78
2022/06/06 12:01:39;;;;;;;3.75;1.52;;;;;;;;;;4996646;28;20222;-79
2022/06/06 12:05:22;;;;;;;2.80;1.63;;;;;;;;;;5019699;28;20179;-79
2022/06/06 12:09:21;;;;;;;4.97;1.70;;;;;;;;;;4998726;28;20183;-79
2022/06/06 12:12:37;;;;;;;2.55;1.40;;;;;;;;;;4987441;28;20559;-79
2022/06/06 12:16:21;;;;;;;2.17;1.75;;;;;;;;;;5020125;28;20187;-79
2022/06/06 12:19:52;;;;;;;3.50;1.40;;;;;;;;;;5019753;28;20186;-78
2022/06/06 12:23:19;;;;;;;4.05;1.67;;;;;;;;;;5018259;28;20178;-79
2022/06/06 12:27:04;;;;;;;4.85;1.63;;;;;;;;;;5006958;28;20186;-79
2022/06/06 12:30:17;;;;;;;1.98;1.40;;;;;;;;;;5015705;23;20230;-80
2022/06/06 12:33:31;;;;;;;1.85;1.38;;;;;;;;;;4976399;28;20564;-80
2022/06/06 12:37:10;;;;;;;2.42;1.35;;;;;;;;;;4977797;28;20187;-80
2022/06/06 12:40:21;;;;;;;5.25;1.70;;;;;;;;;;4988780;28;20183;-80
2022/06/06 12:43:38;;;;;;;2.30;1.48;;;;;;;;;;4977115;28;20183;-80
2022/06/06 12:47:16;;;;;;;3.80;1.55;;;;;;;;;;4987398;28;20183;-80
2022/06/06 12:50:26;;;;;;;3.22;1.67;;;;;;;;;;4987663;28;20637;-80
2022/06/06 12:53:53;;;;;;;3.85;1.60;;;;;;;;;;4978112;28;20211;-80
2022/06/06 12:57:01;;;;;;;3.45;1.70;;;;;;;;;;4999569;28;20179;-80
2022/06/06 13:00:11;;;;;;;1.83;1.63;;;;;;;;;;4987091;28;20172;-80
2022/06/06 13:03:40;;;;;;;4.10;1.40;;;;;;;;;;4986645;28;20195;-79
2022/06/06 13:07:22;;;;;;;3.03;1.50;;;;;;;;;;4976731;28;20195;-79
2022/06/06 13:10:32;;;;;;;3.78;1.45;;;;;;;;;;4984879;28;20180;-80
2022/06/06 13:13:52;;;;;;;1.55;1.20;;;;;;;;;;4979191;28;20215;-80
2022/06/06 13:17:09;;;;;;;4.95;1.48;;;;;;;;;;4988611;28;20183;-80
2022/06/06 13:20:25;;;;;;;2.35;2.00;;;;;;;;;;4990789;28;20199;-80
2022/06/06 13:23:52;;;;;;;5.07;1.48;;;;;;;;;;4991404;28;20187;-80
2022/06/06 13:27:17;;;;;;;2.05;1.30;;;;;;;;;;4989595;28;20191;-80
2022/06/06 13:30:26;;;;;;;2.90;1.27;;;;;;;;;;4977660;28;20207;-80
2022/06/06 13:34:08;;;;;;;3.10;1.48;;;;;;;;;;4979066;28;20207;-79
2022/06/06 13:37:36;;;;;;;2.80;1.55;;;;;;;;;;4989398;28;20642;-80
2022/06/06 13:40:42;;;;;;;3.63;1.10;;;;;;;;;;4958451;29;20199;-80
2022/06/06 13:43:59;;;;;;;2.42;1.50;;;;;;;;;;4972254;28;20175;-79
2022/06/06 13:47:34;;;;;;;2.50;1.38;;;;;;;;;;4980911;28;20526;-79
2022/06/06 13:50:58;;;;;;;2.00;1.42;;;;;;;;;;4981346;28;20179;-79
2022/06/06 13:54:05;;;;;;;1.95;1.17;;;;;;;;;;4968664;28;20215;-80
2022/06/06 13:57:16;;;;;;;1.92;1.23;;;;;;;;;;4957647;28;20187;-79
2022/06/06 14:00:28;;;;;;;1.65;1.42;;;;;;;;;;4980302;28;20206;-79
2022/06/06 14:03:57;;;;;;;1.65;1.30;;;;;;;;;;4970122;28;20650;-79
2022/06/06 14:07:21;;;;;;;2.53;1.38;;;;;;;;;;4968642;28;20195;-79
2022/06/06 14:10:41;;;;;;;2.60;1.40;;;;;;;;;;4982882;28;20199;-80
2022/06/06 14:13:49;;;;;;;1.63;1.45;;;;;;;;;;4981307;28;20211;-79
2022/06/06 14:16:57;;;;;;;4.57;1.38;;;;;;;;;;4961705;29;20181;-79
2022/06/06 14:20:17;;;;;;;1.85;1.20;;;;;;;;;;4958699;28;20187;-79
2022/06/06 14:23:21;;;;;;;2.03;1.40;;;;;;;;;;4984359;28;20195;-79
2022/06/06 14:26:25;;;;;;;4.57;1.60;;;;;;;;;;4961244;28;20179;-79
2022/06/06 14:29:37;;;;;;;2.08;1.40;;;;;;;;;;4985922;28;20209;-79
2022/06/06 14:32:44;;;;;;;6.47;1.42;;;;;;;;;;4987552;28;20226;-79
2022/06/06 14:35:48;;;;;;;1.75;1.55;;;;;;;;;;4974253;28;20186;-79
2022/06/06 14:39:01;;;;;;;1.77;1.42;;;;;;;;;;4972715;28;20186;-79
2022/06/06 14:42:09;;;;;;;2.55;1.40;;;;;;;;;;4974995;28;20218;-79
2022/06/06 14:45:26;;;;;;;3.03;1.52;;;;;;;;;;4975424;28;20191;-79
2022/06/06 14:48:40;;;;;;;2.83;1.08;;;;;;;;;;4983349;28;20179;-79
2022/06/06 14:51:47;;;;;;;2.45;1.45;;;;;;;;;;4985343;28;20218;-78
2022/06/06 14:54:56;;;;;;;1.75;1.10;;;;;;;;;;4984495;28;20215;-79
2022/06/06 14:58:10;;;;;;;3.92;1.80;;;;;;;;;;4953603;29;20204;-79
2022/06/06 15:01:20;;;;;;;2.65;1.40;;;;;;;;;;4986336;28;20256;-78
2022/06/06 15:04:27;;;;;;;3.30;1.42;;;;;;;;;;4972044;28;20202;-79
2022/06/06 15:07:54;;;;;;;3.25;1.42;;;;;;;;;;4984355;28;20190;-79
2022/06/06 15:11:04;;;;;;;6.50;1.60;;;;;;;;;;4995918;28;20563;-79
2022/06/06 15:14:11;;;;;;;3.75;1.35;;;;;;;;;;4961862;28;20210;-78
2022/06/06 15:17:17;;;;;;;2.03;1.35;;;;;;;;;;4985091;28;20203;-79
2022/06/06 15:20:31;;;;;;;2.35;1.45;;;;;;;;;;4982624;28;20183;-79
2022/06/06 15:23:48;;;;;;;4.45;1.30;;;;;;;;;;4973101;28;20193;-78
2022/06/06 15:27:02;;;;;;;2.33;1.65;;;;;;;;;;4963650;28;20186;-79
2022/06/06 15:30:29;;;;;;;2.65;1.70;;;;;;;;;;4982146;28;20238;-79
2022/06/06 15:33:52;;;;;;;3.25;1.52;;;;;;;;;;4950701;28;20186;-78
2022/06/06 15:37:08;;;;;;;7.32;3.30;;;;;;;;;;4986336;28;20194;-78
2022/06/06 15:40:19;;;;;;;2.20;1.50;;;;;;;;;;4985336;28;20583;-79
2022/06/06 15:43:29;;;;;;;3.55;1.85;;;;;;;;;;4971393;28;20192;-79
2022/06/06 15:46:48;;;;;;;1.75;1.30;;;;;;;;;;4981143;28;20190;-80
2022/06/06 15:50:01;;;;;;;1.92;1.38;;;;;;;;;;4971798;28;20287;-80
2022/06/06 15:53:20;;;;;;;2.95;1.80;;;;;;;;;;4982632;28;20180;-80
2022/06/06 15:56:57;;;;;;;7.20;1.80;;;;;;;;;;4968121;28;20206;-79
2022/06/06 16:00:19;;;;;;;2.10;1.50;;;;;;;;;;4967393;28;20201;-79
2022/06/06 16:03:54;;;;;;;1.30;1.15;;;;;;;;;;4978902;28;20183;-79
2022/06/06 16:07:05;;;;;;;5.28;1.60;;;;;;;;;;4958193;28;20252;-80
2022/06/06 16:10:18;;;;;;;3.13;1.33;;;;;;;;;;4979001;28;20180;-77
2022/06/06 16:13:45;;;;;;;1.65;1.27;;;;;;;;;;4977789;28;20204;-78
2022/06/06 16:16:53;;;;;;;2.17;1.48;;;;;;;;;;4976220;28;20197;-78
2022/06/06 16:20:21;;;;;;;3.42;1.50;;;;;;;;;;4976847;28;20193;-77
2022/06/06 16:23:51;;;;;;;3.72;1.35;;;;;;;;;;4976444;28;20177;-77
2022/06/06 16:27:21;;;;;;;1.52;1.30;;;;;;;;;;4956835;29;20210;-77
2022/06/06 16:30:30;;;;;;;3.05;1.33;;;;;;;;;;4961703;28;20217;-77
2022/06/06 16:33:37;;;;;;;5.38;1.48;;;;;;;;;;4976681;28;20190;-77
2022/06/06 16:37:13;;;;;;;5.63;1.50;;;;;;;;;;4964712;28;20189;-77
2022/06/06 16:40:43;;;;;;;1.45;1.20;;;;;;;;;;4963849;28;20650;-77
2022/06/06 16:48:00;;;;;;;3.42;1.42;;;;;;;;;;4962090;28;20201;-77
2022/06/06 16:51:23;;;;;;;2.40;1.50;;;;;;;;;;4964508;28;20223;-78
2022/06/06 16:54:58;;;;;;;2.05;1.20;;;;;;;;;;4957377;29;20217;-77
2022/06/06 16:58:39;;;;;;;2.42;1.70;;;;;;;;;;4965098;28;20192;-78
2022/06/06 17:02:34;;;;;;;2.33;1.40;;;;;;;;;;4963408;28;20695;-78
2022/06/06 17:09:17;;;;;;;5.17;1.70;;;;;;;;;;4977376;28;20185;-78
2022/06/06 17:12:27;;;;;;;1.50;1.40;;;;;;;;;;4974637;28;20239;-77
2022/06/06 17:15:39;;;;;;;1.90;1.80;;;;;;;;;;4976270;28;20221;-77
2022/06/06 17:18:58;;;;;;;2.37;1.63;;;;;;;;;;4975189;28;20648;-76
2022/06/06 17:22:11;;;;;;;4.10;1.87;;;;;;;;;;4959734;28;20583;-78
2022/06/06 17:25:34;;;;;;;2.07;1.70;;;;;;;;;;4975673;28;20655;-76
2022/06/06 17:28:55;;;;;;;6.30;1.43;;;;;;;;;;4957931;29;20186;-78
2022/06/06 17:32:45;;;;;;;5.47;1.70;;;;;;;;;;4959817;28;20220;-79
2022/06/06 17:36:17;;;;;;;3.07;1.40;;;;;;;;;;4983349;28;20215;-77
2022/06/06 17:39:24;;;;;;;4.33;2.00;;;;;;;;;;4982838;28;20196;-78
2022/06/06 17:42:35;;;;;;;5.43;1.70;;;;;;;;;;4967883;28;20223;-76
2022/06/06 17:45:59;;;;;;;5.07;1.70;;;;;;;;;;4975525;28;20184;-76
2022/06/06 17:49:13;;;;;;;3.07;1.73;;;;;;;;;;4976032;28;20194;-78
2022/06/06 17:52:38;;;;;;;4.53;1.60;;;;;;;;;;4975661;28;20223;-77
2022/06/06 17:55:54;;;;;;;3.47;1.80;;;;;;;;;;4993185;28;20286;-78
2022/06/06 17:59:16;;;;;;;5.00;2.00;;;;;;;;;;4981372;28;20194;-81
2022/06/06 18:02:30;;;;;;;6.60;1.60;;;;;;;;;;4950871;28;20233;-77
2022/06/06 18:05:52;;;;;;;5.17;1.73;;;;;;;;;;4975397;28;20195;-80
2022/06/06 18:09:21;;;;;;;8.03;2.00;;;;;;;;;;4964234;28;20549;-80
2022/06/06 18:12:36;;;;;;;2.43;1.97;;;;;;;;;;4963640;28;20223;-79
2022/06/06 18:16:34;;;;;;;5.10;1.87;;;;;;;;;;4963463;28;20211;-79
2022/06/06 18:19:45;;;;;;;5.07;1.60;;;;;;;;;;4940368;29;20210;-80
2022/06/06 18:22:50;;;;;;;3.63;2.00;;;;;;;;;;4956256;29;20227;-80
2022/06/06 18:26:00;;;;;;;3.53;1.67;;;;;;;;;;4957754;29;20179;-78
2022/06/06 18:29:15;;;;;;;3.13;1.90;;;;;;;;;;4976547;28;20646;-78
2022/06/06 18:32:32;;;;;;;3.33;1.97;;;;;;;;;;5024044;23;20240;-78
2022/06/06 18:35:38;;;;;;;2.33;1.80;;;;;;;;;;5014432;28;20202;-78
2022/06/06 18:38:45;;;;;;;1.80;1.70;;;;;;;;;;4982772;28;20203;-79
2022/06/06 18:41:58;;;;;;;4.13;1.57;;;;;;;;;;4987514;28;20223;-77
2022/06/06 18:45:16;;;;;;;3.63;1.80;;;;;;;;;;4999268;28;20197;-79
2022/06/06 18:48:21;;;;;;;3.17;2.13;;;;;;;;;;5000107;28;20650;-79
2022/06/06 18:51:30;;;;;;;6.20;2.40;;;;;;;;;;4997791;28;20222;-77
2022/06/06 18:54:37;;;;;;;5.70;2.27;;;;;;;;;;4998230;28;20179;-79
2022/06/06 18:58:01;;;;;;;5.60;2.40;;;;;;;;;;4985265;28;20178;-79
2022/06/06 19:01:14;;;;;;;2.37;2.00;;;;;;;;;;4998215;28;20220;-79
2022/06/06 19:04:23;;;;;;;3.90;1.80;;;;;;;;;;4996789;28;20183;-78
2022/06/06 19:07:34;;;;;;;5.00;2.57;;;;;;;;;;4996918;28;20187;-79
2022/06/06 19:10:45;;;;;;;2.47;2.27;;;;;;;;;;4988044;28;20187;-78
2022/06/06 19:14:01;;;;;;;3.33;2.10;;;;;;;;;;5005328;28;20185;-78
2022/06/06 19:17:10;;;;;;;2.97;1.93;;;;;;;;;;4988803;28;20170;-78
2022/06/06 19:20:24;;;;;;;3.07;2.10;;;;;;;;;;5018862;28;20206;-78
2022/06/06 19:23:58;;;;;;;3.40;2.30;;;;;;;;;;5021711;28;20228;-78
2022/06/06 19:27:09;;;;;;;6.97;2.40;;;;;;;;;;5000301;28;20522;-78
2022/06/06 19:30:16;;;;;;;2.70;2.23;;;;;;;;;;5000417;28;20186;-78
2022/06/06 19:33:26;;;;;;;2.47;2.27;;;;;;;;;;5018156;28;20628;-78
2022/06/06 19:36:33;;;;;;;2.67;1.93;;;;;;;;;;5000049;28;20206;-78
2022/06/06 19:39:37;;;;;;;4.20;2.47;;;;;;;;;;5015701;28;20648;-79
2022/06/06 19:42:46;;;;;;;3.90;2.23;;;;;;;;;;5020432;28;20217;-78
2022/06/06 19:46:10;;;;;;;4.27;2.50;;;;;;;;;;5020101;28;20537;-78
2022/06/06 19:49:19;;;;;;;3.23;2.20;;;;;;;;;;5008642;28;20190;-78
2022/06/06 19:52:30;;;;;;;6.37;2.30;;;;;;;;;;5002450;28;20222;-79
2022/06/06 19:55:43;;;;;;;2.97;1.90;;;;;;;;;;4989385;28;20210;-79
2022/06/06 19:58:49;;;;;;;4.00;2.03;;;;;;;;;;5000467;28;20191;-78
2022/06/06 20:01:57;;;;;;;6.67;2.20;;;;;;;;;;4977105;28;20221;-78
2022/06/06 20:05:18;;;;;;;4.27;2.17;;;;;;;;;;4999690;28;20522;-78
2022/06/06 20:08:26;;;;;;;4.83;2.50;;;;;;;;;;5000835;28;20186;-78
2022/06/06 20:11:46;;;;;;;3.87;2.23;;;;;;;;;;4999462;28;20558;-78
2022/06/06 20:15:07;;;;;;;7.40;2.50;;;;;;;;;;4994908;28;20538;-79
2022/06/06 20:18:20;;;;;;;4.60;2.50;;;;;;;;;;5000867;28;20186;-78
2022/06/06 20:21:32;;;;;;;3.07;2.40;;;;;;;;;;5005260;28;20221;-78